Flight Track Log - Related Links

Times and Time Zones

All times are in EDT time to prevent confusion due to time zone crossing. See the GGN7281 flight status page for this flight to view local times or setup timezone preferences in your user account.

Time Position Orientation Groundspeed Altitude Reporting Facility
EDT Latitude Longitude Course Direction KTS MPH feet Rate Location/Type
Fri 11:23:09 AM 42.7589 -73.8058 326° Northwest 134 154 900  Level Boston Center
Fri 11:24:10 AM 42.7942 -73.8378 326° Northwest 149 171 2,700 1,918 Climbing Boston Center
Fri 11:25:11 AM 42.8017 -73.8889 281° West 141 162 4,800 1,714 Climbing Boston Center
Fri 11:25:41 AM 42.8075 -73.9172 286° West 148 170 5,300 1,648 Climbing Boston Center
Fri 11:26:42 AM 42.8153 -73.9686 282° West 164 189 7,300 1,835 Climbing Boston Center
Fri 11:27:42 AM 42.8228 -74.0253 280° West 158 182 9,000 1,627 Climbing Boston Center
Fri 11:28:40 AM 42.8281 -74.0961 276° West 168 193 10,500 1,475 Climbing Boston Center
Fri 11:29:40 AM 42.8292 -74.1642 271° West 183 211 11,900 1,289 Climbing Boston Center
Fri 11:30:41 AM 42.8322 -74.2408 273° West 198 228 13,100 1,033 Climbing Boston Center
Fri 11:31:42 AM 42.8372 -74.3172 275° West 198 228 14,000 1,109 Climbing Boston Center
Fri 11:32:40 AM 42.8400 -74.3939 273° West 204 235 15,300 915 Climbing Boston Center
Fri 11:33:40 AM 42.8408 -74.4619 271° West 209 241 15,800 350 Climbing Boston Center
Fri 11:34:40 AM 42.8453 -74.5669 273° West 228 262 16,000 99 Climbing Boston Center
Fri 11:35:41 AM 42.8500 -74.6547 274° West 236 272 16,000  Level Boston Center
Fri 11:36:42 AM 42.8522 -74.7456 272° West 236 272 16,000  Level Boston Center
Fri 11:37:40 AM 42.8547 -74.8306 272° West 236 272 16,000  Level Boston Center
Fri 11:38:40 AM 42.8589 -74.9186 274° West 236 272 16,000  Level Boston Center
Fri 11:39:41 AM 42.8611 -75.0092 272° West 236 272 16,000  Level Boston Center
Fri 11:40:42 AM 42.8656 -75.0972 274° West 236 272 16,000  Level Boston Center
Fri 11:41:42 AM 42.8694 -75.1881 273° West 236 272 16,000  Level Boston Center
Fri 11:42:43 AM 42.8714 -75.2761 272° West 236 272 16,000  Level Boston Center
Fri 11:43:40 AM 42.8733 -75.3642 272° West 236 272 16,000  Level Boston Center
Fri 11:44:41 AM 42.8753 -75.4519 272° West 236 272 16,000  Level Boston Center
Fri 11:46:18 AM 42.8825 -75.5994 274° West 234 269 16,000  Level New Center
Fri 11:47:19 AM 42.8831 -75.6872 271° West 234 269 16,000  Level New Center
Fri 11:48:18 AM 42.8875 -75.7781 274° West 234 269 16,000  Level New Center
Fri 11:49:18 AM 42.8900 -75.8658 272° West 234 269 16,000  Level New Center
Fri 11:50:19 AM 42.8925 -75.9539 272° West 234 269 16,000  Level New Center
Fri 11:51:20 AM 42.8950 -76.0417 272° West 234 269 16,000  Level New Center
Fri 11:52:21 AM 42.8950 -76.1322 270° West 234 269 16,000  Level New Center
Fri 11:53:18 AM 42.8972 -76.2200 272° West 234 269 16,000  Level New Center
Fri 11:54:03 AM 42.8994 -76.2889 273° West 236 272 16,000  Level Cleveland Center
Fri 11:55:03 AM 42.8986 -76.3769 269° West 241 277 16,000  Level Cleveland Center
Fri 11:56:03 AM 42.9039 -76.4672 275° West 241 277 16,000  Level Cleveland Center
Fri 11:57:03 AM 42.9047 -76.5550 271° West 236 272 16,000 50 Level Cleveland Center
Fri 11:58:03 AM 42.9017 -76.6461 267° West 236 272 16,100 50 Climbing Cleveland Center
Fri 11:59:03 AM 42.9025 -76.7339 271° West 236 272 16,100 -50 Level Cleveland Center
Fri 12:00:03 PM 42.9056 -76.8244 273° West 236 272 16,000 -50 Descending Cleveland Center
Fri 12:01:03 PM 42.9106 -76.9119 274° West 231 266 16,000  Level Cleveland Center
Fri 12:02:03 PM 42.9131 -76.9969 272° West 231 266 16,000  Level Cleveland Center
Fri 12:03:03 PM 42.9053 -77.0794 263° West 226 260 16,000 50 Level Cleveland Center
Fri 12:04:03 PM 42.8825 -77.1575 248° West 226 260 16,100  Climbing Cleveland Center
Fri 12:05:03 PM 42.8619 -77.2350 250° West 226 260 16,000 -100 Descending Cleveland Center
Fri 12:06:03 PM 42.8411 -77.3125 250° West 226 260 15,900  Descending Cleveland Center
Fri 12:07:03 PM 42.8100 -77.3850 240° Southwest 226 260 16,000 50 Climbing Cleveland Center
Fri 12:08:03 PM 42.7786 -77.4631 241° Southwest 231 266 16,000  Level Cleveland Center
Fri 12:09:03 PM 42.7475 -77.5408 241° Southwest 236 272 16,000  Level Cleveland Center
Fri 12:10:03 PM 42.7139 -77.6161 239° Southwest 236 272 16,000 50 Level Cleveland Center
Fri 12:11:03 PM 42.6825 -77.6908 240° Southwest 236 272 16,100  Climbing Cleveland Center
Fri 12:12:03 PM 42.6508 -77.7658 240° Southwest 236 272 16,000 -50 Descending Cleveland Center
Fri 12:13:03 PM 42.6131 -77.8381 235° Southwest 231 266 16,000  Level Cleveland Center
Fri 12:14:03 PM 42.5689 -77.9133 231° Southwest 242 278 16,000 50 Level Cleveland Center
Fri 12:15:03 PM 42.5353 -77.9881 239° Southwest 242 278 16,100  Climbing Cleveland Center
Fri 12:16:03 PM 42.5536 -78.0689 287° West 212 244 16,000 -50 Descending Cleveland Center
Fri 12:17:03 PM 42.5761 -78.1358 295° West 212 244 16,000  Level Cleveland Center
Fri 12:18:03 PM 42.6025 -78.2108 296° West 223 257 16,000  Level Cleveland Center
Fri 12:19:03 PM 42.6375 -78.2831 303° West 228 262 16,000 50 Level Cleveland Center
Fri 12:20:03 PM 42.6783 -78.3464 311° West 234 269 16,100  Climbing Cleveland Center
Fri 12:21:03 PM 42.7169 -78.4128 308° West 234 269 16,000 -50 Descending Cleveland Center
Fri 12:22:03 PM 42.7600 -78.4822 310° West 234 269 16,000  Level Cleveland Center
Fri 12:23:03 PM 42.8028 -78.5458 313° West 234 269 16,000 -50 Level Cleveland Center
Fri 12:24:03 PM 42.8436 -78.6067 312° West 229 264 15,900 -350 Descending Cleveland Center
Fri 12:25:03 PM 42.8864 -78.6792 309° West 229 264 15,300 -600 Descending Cleveland Center
Fri 12:26:03 PM 42.9314 -78.7514 310° West 235 270 14,700 -650 Descending Cleveland Center
Fri 12:27:03 PM 42.9739 -78.8097 315° West 235 270 14,000 -798 Descending Cleveland Center
Fri 12:29:26 PM 43.0667 -78.9333 316° Northwest 210 242 12,000 -798 Descending Toronto Center
Fri 12:30:26 PM 43.1000 -79.0000 304° West 220 253 11,300 -550 Descending Toronto Center
Fri 12:31:26 PM 43.1500 -79.0667 316° Northwest 210 242 10,900 -650 Descending Toronto Center
Fri 12:32:26 PM 43.1833 -79.1333 304° West 210 242 10,000 -850 Descending Toronto Center
Fri 12:33:26 PM 43.2167 -79.1833 312° West 210 242 9,200 -950 Descending Toronto Center
Fri 12:34:26 PM 43.2500 -79.2500 304° West 210 242 8,100 -950 Descending Toronto Center
Fri 12:35:26 PM 43.2833 -79.3167 304° West 230 265 7,300 -900 Descending Toronto Center
Fri 12:36:26 PM 43.3500 -79.3167 360° North 240 276 6,300 -700 Descending Toronto Center
Fri 12:37:26 PM 43.4167 -79.2833 20° North 240 276 5,900 -750 Descending Toronto Center
Fri 12:38:26 PM 43.4667 -79.3500 316° Northwest 220 253 4,800 -1,100 Descending Toronto Center
Fri 12:39:26 PM 43.5000 -79.4000 313° West 210 242 3,700 -950 Descending Toronto Center
Fri 12:40:26 PM 43.5333 -79.4500 313° West 200 230 2,900 -500 Descending Toronto Center
Fri 12:41:26 PM 43.5833 -79.5000 324° Northwest 180 207 2,700 -550 Descending Toronto Center
Fri 12:42:26 PM 43.6167 -79.5333 324° Northwest 160 184 1,800 -800 Descending Toronto Center
Fri 12:43:26 PM 43.6333 -79.5833 295° West 140 161 1,100 -650 Descending Toronto Center
Fri 12:44:26 PM 43.6667 -79.6167 324° Northwest 120 138 500 -600 Descending Toronto Center

Login

Don't have an account? Register now (free) for customized features, flight alerts, and more!